»·PEaware :: SWA244 KSNA-KPHX

SWA244 :: KSNA-KPHX

FLIGHT INFORMATION

Flight Status: Arrived
Operator:
Southwest Airlines
More flights by this operator :: More flights under this callsign
Pilot: Cody B. (17747)
Aircraft: BOEING 737-800
(B738)
More flights by this aircraft type
Origin: KSNA John Wayne-Orange Co
United States
Destination: KPHX Phoenix Sky Harbor Intl
United States
More flights between these airports :: More routes between these airports
Route: +STAYY1 CNERY BLH HYDRR1
File this flight plan on PilotEdge
Remarks:
Altitude:
(Current/Filed)
35,000ft
Speed:
(Current/Filed)
467kts
Departed: 20-Jul-18 10:16 AM
Arrived: 20-Jul-18 11:10 AM
Distance/Time
Traveled:
294nm/0:54
Distance/Time
To Go:
Arrived

Flight Plot

Page will automatically refresh every two minutes.

Flight plan parsing failed; only flown route is shown


Map Options




Map Legend


Flown Route
Filed Route
Departure Airport
Arrival Airport
Navaid (VOR, NDB)
Fix

Horizontal Profiles

Position Reports

Time Latitude Longitude Heading Altitude Ground
Speed
20-Jul-18 09:33 33.675717 -117.864669 117 64ft 0kts
20-Jul-18 09:34 33.675717 -117.864669 117 64ft 0kts
20-Jul-18 09:35 33.675717 -117.864669 117 64ft 0kts
20-Jul-18 09:36 33.675717 -117.864669 117 64ft 0kts
20-Jul-18 09:37 33.675717 -117.864669 117 64ft 0kts
20-Jul-18 09:38 33.675717 -117.864669 117 64ft 0kts
20-Jul-18 09:39 33.675717 -117.864669 117 64ft 0kts
20-Jul-18 09:40 33.675717 -117.864669 117 64ft 0kts
20-Jul-18 09:41 33.675717 -117.864669 117 64ft 0kts
20-Jul-18 09:42 33.675717 -117.864669 117 64ft 0kts
20-Jul-18 09:43 33.675717 -117.864669 117 64ft 0kts
20-Jul-18 09:44 33.675717 -117.864669 117 64ft 0kts
20-Jul-18 09:45 33.675717 -117.864669 117 64ft 0kts
20-Jul-18 09:46 33.675717 -117.864669 117 64ft 0kts
20-Jul-18 09:47 33.675717 -117.864669 117 64ft 0kts
20-Jul-18 09:48 33.675717 -117.864669 117 64ft 0kts
20-Jul-18 09:49 33.675717 -117.864669 117 64ft 0kts
20-Jul-18 09:50 33.675717 -117.864669 117 64ft 0kts
20-Jul-18 09:51 33.675717 -117.864669 117 64ft 0kts
20-Jul-18 09:52 33.675717 -117.864669 117 64ft 0kts
20-Jul-18 09:53 33.675717 -117.864669 117 64ft 0kts
20-Jul-18 09:54 33.675717 -117.864669 117 64ft 0kts
20-Jul-18 09:55 33.675717 -117.864669 117 64ft 0kts
20-Jul-18 09:56 33.675717 -117.864669 117 64ft 0kts
20-Jul-18 09:57 33.675717 -117.864669 117 64ft 0kts
20-Jul-18 09:58 33.675717 -117.864669 117 64ft 0kts
20-Jul-18 09:59 33.675717 -117.864669 117 64ft 0kts
20-Jul-18 10:00 33.675717 -117.864669 117 64ft 0kts
20-Jul-18 10:01 33.675717 -117.864669 117 64ft 0kts
20-Jul-18 10:02 33.675717 -117.864669 117 64ft 0kts
20-Jul-18 10:03 33.675739 -117.864727 117 64ft 1kts
20-Jul-18 10:04 33.675806 -117.864883 117 63ft 1kts
20-Jul-18 10:05 33.675847 -117.865293 65 64ft 2kts
20-Jul-18 10:06 33.675736 -117.865440 27 64ft 0kts
20-Jul-18 10:07 33.675736 -117.865440 27 64ft 0kts
20-Jul-18 10:08 33.675737 -117.865440 27 64ft 0kts
20-Jul-18 10:09 33.675737 -117.865440 27 64ft 0kts
20-Jul-18 10:10 33.675794 -117.865404 27 64ft 1kts
20-Jul-18 10:11 33.677148 -117.864567 27 64ft 9kts
20-Jul-18 10:12 33.678913 -117.863449 28 64ft 10kts
20-Jul-18 10:13 33.680823 -117.863452 297 64ft 5kts
20-Jul-18 10:14 33.681135 -117.864181 296 64ft 0kts
20-Jul-18 10:15 33.681212 -117.864364 296 64ft 4kts
20-Jul-18 10:16 33.681421 -117.865130 231 63ft 2kts
20-Jul-18 10:17 33.675467 -117.868992 208 64ft 111kts
20-Jul-18 10:18 33.633501 -117.893448 195 1259ft 230kts
20-Jul-18 10:19 33.573450 -117.895575 165 4506ft 231kts
20-Jul-18 10:20 33.512963 -117.858235 137 6954ft 261kts
20-Jul-18 10:21 33.479208 -117.781397 107 9765ft 270kts
20-Jul-18 10:22 33.485827 -117.686498 68 11617ft 316kts
20-Jul-18 10:23 33.529027 -117.594453 63 13913ft 331kts
20-Jul-18 10:24 33.569966 -117.496256 85 16032ft 337kts
20-Jul-18 10:25 33.551147 -117.388117 111 18040ft 341kts
20-Jul-18 10:26 33.518650 -117.281799 113 19969ft 350kts
20-Jul-18 10:27 33.500443 -117.166934 93 21681ft 367kts
20-Jul-18 10:28 33.499407 -117.043414 94 23305ft 376kts
20-Jul-18 10:29 33.497249 -116.917316 94 24826ft 384kts
20-Jul-18 10:30 33.495859 -116.788332 93 26227ft 392kts
20-Jul-18 10:31 33.494730 -116.679055 93 27269ft 399kts
20-Jul-18 10:32 33.492892 -116.523728 93 28641ft 407kts
20-Jul-18 10:33 33.491095 -116.387771 93 29897ft 409kts
20-Jul-18 10:34 33.489195 -116.254380 94 31215ft 404kts
20-Jul-18 10:35 33.487127 -116.121029 95 32407ft 400kts
20-Jul-18 10:36 33.498236 -115.989702 75 33395ft 408kts
20-Jul-18 10:37 33.529387 -115.883163 75 34138ft 407kts
20-Jul-18 10:38 33.566763 -115.755578 75 34900ft 407kts
20-Jul-18 10:39 33.604792 -115.624662 74 34906ft 429kts
20-Jul-18 10:40 33.614397 -115.482567 95 34903ft 437kts
20-Jul-18 10:41 33.611032 -115.337598 95 34937ft 438kts
20-Jul-18 10:42 33.607443 -115.193283 95 34940ft 439kts
20-Jul-18 10:43 33.603631 -115.047034 95 34936ft 439kts
20-Jul-18 10:44 33.599627 -114.900997 95 34186ft 438kts
20-Jul-18 10:45 33.594120 -114.754397 102 33192ft 439kts
20-Jul-18 10:46 33.567247 -114.611544 105 32231ft 442kts
20-Jul-18 10:47 33.539528 -114.469458 105 31229ft 436kts
20-Jul-18 10:48 33.512190 -114.329902 105 29571ft 430kts
20-Jul-18 10:49 33.485684 -114.195985 105 27042ft 420kts
20-Jul-18 10:50 33.459140 -114.062451 105 24933ft 398kts
20-Jul-18 10:51 33.433322 -113.933907 105 24980ft 400kts
20-Jul-18 10:52 33.407393 -113.804903 105 23103ft 393kts
20-Jul-18 10:53 33.382587 -113.682312 105 21282ft 380kts
20-Jul-18 10:54 33.358081 -113.561579 105 20026ft 372kts
20-Jul-18 10:55 33.334135 -113.442902 104 18818ft 364kts
20-Jul-18 10:56 33.314037 -113.326743 104 17640ft 358kts
20-Jul-18 10:57 33.294293 -113.212128 102 16484ft 357kts
20-Jul-18 10:58 33.278205 -113.099839 102 15324ft 330kts
20-Jul-18 10:59 33.274179 -112.991007 90 13968ft 331kts
20-Jul-18 11:00 33.277625 -112.884768 90 12543ft 308kts
20-Jul-18 11:01 33.289953 -112.786164 66 11196ft 304kts
20-Jul-18 11:02 33.325270 -112.696507 65 9876ft 297kts
20-Jul-18 11:03 33.359017 -112.609749 65 9050ft 283kts
20-Jul-18 11:04 33.392953 -112.521825 65 7840ft 291kts
20-Jul-18 11:05 33.426098 -112.434601 66 6707ft 295kts
20-Jul-18 11:06 33.429179 -112.340525 92 5478ft 266kts
20-Jul-18 11:07 33.428740 -112.253336 91 4388ft 259kts
20-Jul-18 11:08 33.428839 -112.173653 91 3411ft 223kts
20-Jul-18 11:09 33.428865 -112.110360 91 2541ft 173kts
20-Jul-18 11:10 33.429001 -112.055174 89 1612ft 168kts
20-Jul-18 11:11 33.428860 -112.010788 89 1142ft 30kts
20-Jul-18 11:12 33.429929 -112.006815 76 1142ft 8kts
20-Jul-18 11:13 33.429948 -112.004983 90 1142ft 5kts
20-Jul-18 11:14 33.430584 -112.003240 3 1142ft 8kts
20-Jul-18 11:15 33.432025 -112.002572 69 1142ft 5kts
20-Jul-18 11:16 33.432711 -112.000339 61 1142ft 3kts
20-Jul-18 11:17 33.432835 -111.997644 89 1142ft 13kts
20-Jul-18 11:18 33.432835 -111.994282 90 1142ft 8kts
20-Jul-18 11:19 33.433570 -111.993091 359 1142ft 4kts
20-Jul-18 11:20 33.434066 -111.993588 292 1142ft 0kts
20-Jul-18 11:21 33.434091 -111.993660 292 1142ft 0kts
20-Jul-18 11:22 33.434090 -111.993660 292 1142ft 0kts
20-Jul-18 11:23 33.434090 -111.993660 292 1142ft 0kts
20-Jul-18 11:24 33.434090 -111.993660 292 1142ft 0kts
20-Jul-18 11:25 33.434090 -111.993660 292 1142ft 0kts

Navigation Log

Ident Type
Flight plan parsing failed, navigation log unavailable